Time;durP1;ratioP1;P1;durP2;ratioP2;P2;SDS_P1;SDS_P2;PMS_P1;PMS_P2;Temp;Humidity;BMP_temperature;BMP_pressure;BME280_temperature;BME280_humidity;BME280_pressure;Samples;Min_cycle;Max_cycle;Signal;HPM_P1;HPM_P2
2022/05/30 00:02:02;;;;;;;3.88;3.50;;;;;;;;;;4990012;28;20497;-68
2022/05/30 00:04:28;;;;;;;6.35;2.83;;;;;;;;;;4985648;28;20358;-68
2022/05/30 00:06:53;;;;;;;3.15;2.83;;;;;;;;;;4990426;28;22875;-68
2022/05/30 00:09:18;;;;;;;3.90;3.30;;;;;;;;;;4979131;28;20421;-68
2022/05/30 00:11:43;;;;;;;5.20;4.15;;;;;;;;;;4980052;28;20037;-70
2022/05/30 00:14:09;;;;;;;7.68;4.75;;;;;;;;;;4990283;28;20038;-70
2022/05/30 00:16:34;;;;;;;5.93;4.45;;;;;;;;;;4991342;28;20026;-73
2022/05/30 00:19:00;;;;;;;5.13;4.00;;;;;;;;;;4992718;28;20026;-69
2022/05/30 00:21:26;;;;;;;5.30;4.25;;;;;;;;;;4988722;28;20037;-73
2022/05/30 00:23:54;;;;;;;6.97;4.82;;;;;;;;;;4983858;28;20034;-69
2022/05/30 00:26:20;;;;;;;6.72;5.20;;;;;;;;;;4988939;28;20026;-69
2022/05/30 00:28:46;;;;;;;6.25;4.80;;;;;;;;;;4988896;28;20018;-71
2022/05/30 00:31:12;;;;;;;6.20;4.63;;;;;;;;;;4977009;28;20052;-68
2022/05/30 00:33:38;;;;;;;4.35;3.78;;;;;;;;;;4980878;28;20085;-72
2022/05/30 00:36:04;;;;;;;5.07;4.38;;;;;;;;;;4985315;28;20026;-72
2022/05/30 00:38:29;;;;;;;9.00;4.70;;;;;;;;;;4989291;28;20034;-72
2022/05/30 00:40:54;;;;;;;5.88;4.57;;;;;;;;;;4983969;28;20113;-70
2022/05/30 00:43:25;;;;;;;4.47;4.07;;;;;;;;;;4989809;28;20030;-69
2022/05/30 00:45:50;;;;;;;4.50;3.97;;;;;;;;;;4980052;28;20030;-74
2022/05/30 00:48:17;;;;;;;4.97;4.05;;;;;;;;;;4986599;28;20124;-70
2022/05/30 00:50:43;;;;;;;5.18;3.90;;;;;;;;;;4987192;28;20026;-68
2022/05/30 00:53:08;;;;;;;5.28;4.32;;;;;;;;;;4988107;28;20442;-68
2022/05/30 00:55:34;;;;;;;5.75;4.05;;;;;;;;;;4974138;28;20108;-70
2022/05/30 00:58:00;;;;;;;4.38;3.80;;;;;;;;;;4989152;28;20026;-71
2022/05/30 01:00:26;;;;;;;4.85;3.45;;;;;;;;;;4986443;28;20077;-69
2022/05/30 01:08:22;;;;;;;3.85;3.45;;;;;;;;;;4993804;28;20052;-69
2022/05/30 01:10:47;;;;;;;4.30;3.40;;;;;;;;;;4980470;28;20026;-71
2022/05/30 01:13:13;;;;;;;3.28;2.83;;;;;;;;;;4988131;28;20034;-70
2022/05/30 01:15:38;;;;;;;4.97;2.97;;;;;;;;;;4980526;28;21621;-69
2022/05/30 01:18:10;;;;;;;5.15;3.08;;;;;;;;;;4990885;28;20034;-68
2022/05/30 01:20:54;;;;;;;3.65;3.10;;;;;;;;;;4989351;28;20023;-68
2022/05/30 01:23:35;;;;;;;3.00;2.67;;;;;;;;;;4990065;28;20061;-72
2022/05/30 01:26:19;;;;;;;8.10;3.17;;;;;;;;;;4987746;28;20034;-73
2022/05/30 01:29:03;;;;;;;4.43;3.45;;;;;;;;;;4976507;28;20026;-68
2022/05/30 01:31:29;;;;;;;3.28;2.95;;;;;;;;;;4990524;28;20023;-73
2022/05/30 01:33:54;;;;;;;2.92;2.67;;;;;;;;;;4991932;28;20068;-72
2022/05/30 01:36:23;;;;;;;4.85;2.90;;;;;;;;;;4981554;28;20062;-70
2022/05/30 01:38:49;;;;;;;5.15;3.10;;;;;;;;;;4980008;28;20105;-68
2022/05/30 01:41:14;;;;;;;3.65;2.78;;;;;;;;;;4988738;28;20120;-69
2022/05/30 01:43:40;;;;;;;2.97;2.50;;;;;;;;;;4990243;28;20026;-69
2022/05/30 01:46:06;;;;;;;2.60;2.40;;;;;;;;;;4990269;28;20026;-72
2022/05/30 01:48:31;;;;;;;6.50;2.70;;;;;;;;;;4990106;28;20450;-69
2022/05/30 01:50:58;;;;;;;3.08;2.78;;;;;;;;;;4992556;28;20026;-69
2022/05/30 01:53:24;;;;;;;3.20;2.83;;;;;;;;;;4993126;28;20022;-70
2022/05/30 01:55:49;;;;;;;4.60;3.53;;;;;;;;;;4990500;28;20050;-72
2022/05/30 01:58:14;;;;;;;4.50;2.72;;;;;;;;;;4989619;28;20058;-70
2022/05/30 02:00:40;;;;;;;4.15;2.78;;;;;;;;;;4991353;28;20465;-68
2022/05/30 02:03:05;;;;;;;2.78;2.22;;;;;;;;;;4982888;28;20032;-71
2022/05/30 02:05:30;;;;;;;2.28;2.08;;;;;;;;;;4988429;28;20026;-69
2022/05/30 02:07:57;;;;;;;2.50;2.25;;;;;;;;;;4991103;28;20027;-67
2022/05/30 02:10:22;;;;;;;2.33;2.13;;;;;;;;;;4988538;28;20733;-69
2022/05/30 02:12:47;;;;;;;5.47;2.70;;;;;;;;;;4990704;28;20014;-69
2022/05/30 02:15:13;;;;;;;2.10;1.95;;;;;;;;;;4979734;28;20053;-69
2022/05/30 02:17:38;;;;;;;3.03;2.60;;;;;;;;;;4995664;28;20310;-72
2022/05/30 02:20:04;;;;;;;5.40;2.78;;;;;;;;;;4979500;28;20026;-70
2022/05/30 02:22:29;;;;;;;2.50;2.30;;;;;;;;;;4987065;28;20037;-72
2022/05/30 02:24:59;;;;;;;2.67;2.47;;;;;;;;;;4990728;28;20023;-70
2022/05/30 02:27:24;;;;;;;3.15;2.85;;;;;;;;;;4990687;28;20061;-70
2022/05/30 02:29:52;;;;;;;3.38;2.60;;;;;;;;;;4993520;28;20433;-68
2022/05/30 02:32:17;;;;;;;2.97;2.67;;;;;;;;;;4991234;28;20034;-69
2022/05/30 02:37:26;;;;;;;3.22;2.40;;;;;;;;;;4988642;28;20089;-69
2022/05/30 02:39:52;;;;;;;4.55;2.80;;;;;;;;;;4990950;28;20026;-72
2022/05/30 02:42:17;;;;;;;2.47;2.25;;;;;;;;;;4982642;28;20109;-69
2022/05/30 02:44:44;;;;;;;2.67;2.42;;;;;;;;;;4973732;28;20549;-69
2022/05/30 02:47:09;;;;;;;2.80;2.50;;;;;;;;;;4988303;28;20037;-71
2022/05/30 02:49:35;;;;;;;3.17;2.88;;;;;;;;;;4990199;28;20030;-70
2022/05/30 02:52:00;;;;;;;3.00;2.70;;;;;;;;;;4991253;28;20105;-69
2022/05/30 02:54:26;;;;;;;2.22;2.00;;;;;;;;;;4990009;28;20038;-69
2022/05/30 02:56:52;;;;;;;2.33;2.13;;;;;;;;;;4989919;28;20129;-73
2022/05/30 02:59:17;;;;;;;3.30;2.40;;;;;;;;;;4988201;28;20039;-68
2022/05/30 03:01:43;;;;;;;3.90;2.53;;;;;;;;;;4989332;28;20021;-70
2022/05/30 03:04:08;;;;;;;2.25;2.05;;;;;;;;;;4983471;28;20054;-68
2022/05/30 03:06:34;;;;;;;3.20;2.30;;;;;;;;;;4984331;28;20022;-68
2022/05/30 03:09:00;;;;;;;2.95;2.13;;;;;;;;;;4987838;28;20132;-69
2022/05/30 03:11:25;;;;;;;7.03;2.70;;;;;;;;;;4992234;28;20022;-67
2022/05/30 03:13:51;;;;;;;3.55;2.67;;;;;;;;;;4979768;28;20110;-67
2022/05/30 03:16:16;;;;;;;3.22;2.78;;;;;;;;;;4990837;28;20022;-72
2022/05/30 03:18:42;;;;;;;2.92;2.63;;;;;;;;;;4988185;28;20046;-72
2022/05/30 03:21:08;;;;;;;3.65;2.80;;;;;;;;;;4987210;28;20057;-69
2022/05/30 03:23:33;;;;;;;3.17;2.63;;;;;;;;;;4979728;28;20414;-69
2022/05/30 03:25:59;;;;;;;4.00;2.53;;;;;;;;;;4975382;28;20026;-69
2022/05/30 03:28:24;;;;;;;4.03;2.58;;;;;;;;;;4990252;28;20033;-68
2022/05/30 03:30:50;;;;;;;4.30;2.97;;;;;;;;;;4991313;28;20034;-69
2022/05/30 03:33:16;;;;;;;4.97;3.58;;;;;;;;;;4989272;28;20336;-68
2022/05/30 03:35:41;;;;;;;3.42;3.03;;;;;;;;;;4989819;28;20078;-70
2022/05/30 03:38:07;;;;;;;3.10;2.80;;;;;;;;;;4989905;28;20037;-71
2022/05/30 03:40:33;;;;;;;3.90;3.03;;;;;;;;;;4989133;28;20068;-69
2022/05/30 03:42:58;;;;;;;3.30;2.75;;;;;;;;;;4986851;28;20081;-68
2022/05/30 03:45:24;;;;;;;3.08;2.60;;;;;;;;;;4987776;28;20036;-70
2022/05/30 03:47:49;;;;;;;5.65;3.13;;;;;;;;;;4985806;28;20026;-69
2022/05/30 03:50:16;;;;;;;4.85;3.42;;;;;;;;;;4982557;28;20049;-67
2022/05/30 03:52:42;;;;;;;4.20;3.20;;;;;;;;;;4984011;28;20088;-68
2022/05/30 03:55:11;;;;;;;3.95;3.00;;;;;;;;;;4986652;28;20034;-69
2022/05/30 03:57:36;;;;;;;;;;;;;;;;;;4988855;28;20738;-69
2022/05/30 04:00:03;;;;;;;3.60;2.80;;;;;;;;;;4989527;28;20585;-72
2022/05/30 04:02:29;;;;;;;4.15;3.13;;;;;;;;;;4988033;28;20022;-69
2022/05/30 04:04:55;;;;;;;5.53;3.33;;;;;;;;;;4991737;28;20041;-70
2022/05/30 04:07:20;;;;;;;6.38;3.35;;;;;;;;;;4987135;28;20037;-69
2022/05/30 04:09:46;;;;;;;3.22;2.92;;;;;;;;;;4976144;28;20038;-69
2022/05/30 04:12:11;;;;;;;4.13;3.22;;;;;;;;;;4989193;28;20765;-72
2022/05/30 04:14:36;;;;;;;4.47;3.08;;;;;;;;;;4989623;28;20037;-68
2022/05/30 04:17:02;;;;;;;4.88;3.63;;;;;;;;;;4988122;28;20119;-70
2022/05/30 04:19:27;;;;;;;3.95;3.20;;;;;;;;;;4983646;28;20452;-68
2022/05/30 04:21:52;;;;;;;4.63;2.88;;;;;;;;;;4966523;28;20029;-72
2022/05/30 04:24:18;;;;;;;3.45;2.67;;;;;;;;;;4982328;28;20446;-68
2022/05/30 04:26:44;;;;;;;3.05;2.72;;;;;;;;;;4983024;28;20068;-75
2022/05/30 04:29:09;;;;;;;3.25;2.92;;;;;;;;;;4983059;28;20034;-77
2022/05/30 04:31:34;;;;;;;3.58;3.03;;;;;;;;;;4984196;28;20417;-72
2022/05/30 04:34:00;;;;;;;7.55;3.40;;;;;;;;;;4986499;28;20434;-77
2022/05/30 04:36:26;;;;;;;4.13;3.08;;;;;;;;;;4987357;28;20034;-74
2022/05/30 04:38:51;;;;;;;4.22;3.83;;;;;;;;;;4986168;28;20374;-73
2022/05/30 04:41:16;;;;;;;4.43;3.50;;;;;;;;;;4986909;28;20033;-74
2022/05/30 04:43:42;;;;;;;4.90;3.70;;;;;;;;;;4987560;28;20041;-71
2022/05/30 04:46:11;;;;;;;3.90;3.50;;;;;;;;;;4975758;28;20056;-72
2022/05/30 04:48:36;;;;;;;4.10;3.40;;;;;;;;;;4988055;28;20056;-74
2022/05/30 04:51:01;;;;;;;3.70;3.40;;;;;;;;;;4982903;28;20054;-72
2022/05/30 04:53:27;;;;;;;6.78;3.90;;;;;;;;;;4986575;28;20038;-73
2022/05/30 04:55:52;;;;;;;3.33;3.03;;;;;;;;;;4988404;28;20871;-71
2022/05/30 04:58:17;;;;;;;4.10;3.63;;;;;;;;;;4987533;28;20029;-70
2022/05/30 05:00:43;;;;;;;5.63;3.80;;;;;;;;;;4988962;28;20445;-73
2022/05/30 05:03:08;;;;;;;4.50;4.05;;;;;;;;;;4986548;28;20362;-72
2022/05/30 05:05:33;;;;;;;3.90;3.47;;;;;;;;;;4971135;28;20033;-72
2022/05/30 05:08:00;;;;;;;5.13;4.15;;;;;;;;;;4971859;28;20030;-75
2022/05/30 05:10:25;;;;;;;4.45;3.90;;;;;;;;;;4969274;28;20053;-71
2022/05/30 05:12:51;;;;;;;4.72;4.10;;;;;;;;;;4977317;28;20441;-71
2022/05/30 05:15:16;;;;;;;8.13;4.18;;;;;;;;;;4979426;28;20038;-72
2022/05/30 05:17:42;;;;;;;4.25;3.83;;;;;;;;;;4976064;28;20030;-74
2022/05/30 05:20:07;;;;;;;4.43;3.75;;;;;;;;;;4969076;28;20038;-70
2022/05/30 05:22:32;;;;;;;5.03;4.30;;;;;;;;;;4985152;28;20039;-71
2022/05/30 05:24:58;;;;;;;4.93;4.18;;;;;;;;;;4988090;28;20080;-75
2022/05/30 05:27:23;;;;;;;5.70;4.57;;;;;;;;;;4979484;28;20038;-71
2022/05/30 05:29:48;;;;;;;4.90;4.15;;;;;;;;;;4973229;28;20049;-72
2022/05/30 05:32:15;;;;;;;4.68;4.18;;;;;;;;;;4972710;28;22723;-73
2022/05/30 05:34:40;;;;;;;6.70;4.50;;;;;;;;;;4980374;28;20038;-71
2022/05/30 05:37:05;;;;;;;5.10;4.28;;;;;;;;;;4986867;28;20032;-71
2022/05/30 05:39:31;;;;;;;6.20;5.30;;;;;;;;;;4985725;28;20442;-72
2022/05/30 05:41:56;;;;;;;5.68;3.95;;;;;;;;;;4987863;28;20048;-71
2022/05/30 05:44:21;;;;;;;6.25;4.88;;;;;;;;;;4985500;28;20065;-71
2022/05/30 05:46:47;;;;;;;7.15;5.43;;;;;;;;;;4973305;28;20946;-72
2022/05/30 05:49:12;;;;;;;9.20;6.32;;;;;;;;;;4983692;28;20038;-75
2022/05/30 05:51:38;;;;;;;7.13;6.00;;;;;;;;;;4989675;28;20022;-72
2022/05/30 05:54:04;;;;;;;6.07;5.50;;;;;;;;;;4988954;28;20092;-71
2022/05/30 05:56:30;;;;;;;8.55;5.03;;;;;;;;;;4986212;28;20105;-71
2022/05/30 05:58:55;;;;;;;7.75;6.40;;;;;;;;;;4973124;28;20453;-71
2022/05/30 06:01:22;;;;;;;11.57;8.95;;;;;;;;;;4986217;28;20033;-71
2022/05/30 06:03:47;;;;;;;11.35;8.35;;;;;;;;;;4988111;28;20442;-69
2022/05/30 06:06:13;;;;;;;13.25;8.32;;;;;;;;;;4984416;28;20121;-73
2022/05/30 06:08:38;;;;;;;14.18;9.02;;;;;;;;;;4989021;28;20069;-70
2022/05/30 06:11:15;;;;;;;11.13;8.45;;;;;;;;;;4991169;28;20022;-69
2022/05/30 06:13:42;;;;;;;12.05;8.57;;;;;;;;;;4987906;28;20034;-72
2022/05/30 06:16:08;;;;;;;9.10;7.63;;;;;;;;;;4973650;28;20034;-68
2022/05/30 06:18:33;;;;;;;11.93;9.32;;;;;;;;;;4987925;28;20049;-68
2022/05/30 06:20:59;;;;;;;13.68;8.85;;;;;;;;;;4986260;28;20018;-74
2022/05/30 06:23:24;;;;;;;9.45;7.88;;;;;;;;;;4985693;28;20030;-70
2022/05/30 06:25:49;;;;;;;9.75;7.90;;;;;;;;;;4988839;28;20062;-71
2022/05/30 06:28:15;;;;;;;10.15;8.23;;;;;;;;;;4986745;28;20422;-72
2022/05/30 06:30:40;;;;;;;9.98;7.28;;;;;;;;;;4989667;28;20045;-69
2022/05/30 06:33:05;;;;;;;9.73;7.57;;;;;;;;;;4987237;28;20442;-69
2022/05/30 06:35:31;;;;;;;8.77;7.22;;;;;;;;;;4991275;28;20042;-67
2022/05/30 06:37:56;;;;;;;10.52;7.35;;;;;;;;;;4992829;28;20096;-68
2022/05/30 06:40:21;;;;;;;7.95;6.05;;;;;;;;;;4994141;28;20021;-68
2022/05/30 06:42:47;;;;;;;9.15;7.32;;;;;;;;;;4990861;28;20080;-71
2022/05/30 06:45:12;;;;;;;7.38;6.57;;;;;;;;;;4994416;28;20042;-73
2022/05/30 06:47:37;;;;;;;7.15;6.43;;;;;;;;;;4990183;28;20030;-69
2022/05/30 06:50:04;;;;;;;8.75;6.38;;;;;;;;;;4975990;28;20038;-73
2022/05/30 06:52:30;;;;;;;6.50;5.80;;;;;;;;;;4992131;28;20026;-68
2022/05/30 06:54:55;;;;;;;7.13;5.13;;;;;;;;;;4989054;28;20045;-69
2022/05/30 07:00:04;;;;;;;8.13;5.05;;;;;;;;;;4992155;28;20028;-68
2022/05/30 07:02:30;;;;;;;6.03;5.30;;;;;;;;;;4992803;28;20027;-72
2022/05/30 07:04:55;;;;;;;7.95;5.43;;;;;;;;;;4988551;28;20022;-72
2022/05/30 07:07:21;;;;;;;6.18;5.25;;;;;;;;;;4991643;28;20029;-69
2022/05/30 07:09:46;;;;;;;6.10;5.07;;;;;;;;;;4991877;28;20031;-72
2022/05/30 07:12:11;;;;;;;5.68;5.07;;;;;;;;;;4989635;28;20405;-69
2022/05/30 07:14:38;;;;;;;6.75;5.05;;;;;;;;;;4994304;28;20132;-73
2022/05/30 07:17:04;;;;;;;5.65;4.82;;;;;;;;;;4991901;28;20031;-68
2022/05/30 07:19:29;;;;;;;6.55;5.15;;;;;;;;;;4991217;28;20076;-69
2022/05/30 07:21:56;;;;;;;5.63;4.93;;;;;;;;;;4992348;28;20030;-74
2022/05/30 07:24:22;;;;;;;10.73;5.45;;;;;;;;;;4994157;28;21156;-69
2022/05/30 07:26:47;;;;;;;8.43;5.32;;;;;;;;;;4992587;28;20026;-69
2022/05/30 07:29:12;;;;;;;7.97;5.22;;;;;;;;;;4991969;28;20034;-71
2022/05/30 07:31:37;;;;;;;5.00;4.50;;;;;;;;;;4990011;28;20029;-70
2022/05/30 07:34:03;;;;;;;6.85;5.68;;;;;;;;;;4989641;28;20038;-68
2022/05/30 07:36:29;;;;;;;7.97;6.18;;;;;;;;;;4989572;28;20069;-69
2022/05/30 07:38:55;;;;;;;6.65;5.95;;;;;;;;;;4989351;28;20037;-69
2022/05/30 07:41:21;;;;;;;6.72;5.65;;;;;;;;;;4994712;28;20366;-71
2022/05/30 07:43:47;;;;;;;7.93;5.72;;;;;;;;;;4992246;28;20025;-69
2022/05/30 07:46:14;;;;;;;7.25;5.70;;;;;;;;;;4991091;28;20029;-69
2022/05/30 07:48:39;;;;;;;7.03;5.50;;;;;;;;;;4989269;28;20422;-69
2022/05/30 07:51:05;;;;;;;8.95;6.00;;;;;;;;;;4988563;28;20030;-73
2022/05/30 07:53:31;;;;;;;7.32;6.28;;;;;;;;;;4991583;28;20065;-73
2022/05/30 07:55:58;;;;;;;6.78;5.32;;;;;;;;;;4989219;28;20141;-69
2022/05/30 07:58:23;;;;;;;6.55;5.20;;;;;;;;;;4989005;28;20030;-70
2022/05/30 08:00:49;;;;;;;6.05;5.45;;;;;;;;;;4989589;28;20357;-70
2022/05/30 08:03:16;;;;;;;7.35;4.95;;;;;;;;;;4993350;28;20057;-69
2022/05/30 08:05:43;;;;;;;8.38;5.28;;;;;;;;;;4989947;28;20026;-71
2022/05/30 08:08:09;;;;;;;6.78;5.30;;;;;;;;;;4987947;28;20030;-73
2022/05/30 08:10:34;;;;;;;5.60;4.55;;;;;;;;;;4985365;28;20349;-69
2022/05/30 08:12:59;;;;;;;5.15;4.53;;;;;;;;;;4989472;28;20052;-69
2022/05/30 08:15:25;;;;;;;6.25;5.18;;;;;;;;;;4989697;28;20100;-71
2022/05/30 08:17:57;;;;;;;7.55;5.93;;;;;;;;;;4990793;28;20022;-74
2022/05/30 08:20:24;;;;;;;7.03;6.32;;;;;;;;;;4986663;28;20334;-70
2022/05/30 08:22:49;;;;;;;7.10;5.47;;;;;;;;;;4990754;28;20033;-69
2022/05/30 08:25:15;;;;;;;6.32;5.35;;;;;;;;;;4990891;28;20034;-69
2022/05/30 08:27:44;;;;;;;6.38;5.25;;;;;;;;;;4989109;28;20032;-73
2022/05/30 08:30:11;;;;;;;8.38;5.00;;;;;;;;;;4990893;28;20022;-69
2022/05/30 08:32:38;;;;;;;8.10;5.53;;;;;;;;;;4989276;28;20037;-70
2022/05/30 08:35:05;;;;;;;6.35;5.18;;;;;;;;;;4989383;28;20034;-72
2022/05/30 08:37:31;;;;;;;5.85;4.72;;;;;;;;;;4989715;28;20077;-67
2022/05/30 08:42:45;;;;;;;6.97;5.38;;;;;;;;;;4990461;28;20065;-69
2022/05/30 08:45:13;;;;;;;7.55;5.55;;;;;;;;;;4991688;28;20062;-68
2022/05/30 08:47:52;;;;;;;6.85;5.78;;;;;;;;;;4991496;28;20022;-69
2022/05/30 08:50:22;;;;;;;11.40;5.47;;;;;;;;;;4989306;28;20453;-67
2022/05/30 08:53:05;;;;;;;6.00;5.22;;;;;;;;;;4991221;28;20457;-67
2022/05/30 08:55:49;;;;;;;8.43;5.40;;;;;;;;;;4989240;28;20108;-69
2022/05/30 08:58:15;;;;;;;5.82;5.22;;;;;;;;;;4991972;28;20464;-70
2022/05/30 09:00:50;;;;;;;8.60;5.10;;;;;;;;;;4990507;28;20042;-70
2022/05/30 09:03:20;;;;;;;6.63;5.32;;;;;;;;;;4986964;28;20022;-68
2022/05/30 09:05:50;;;;;;;6.97;4.82;;;;;;;;;;4986930;28;20024;-71
2022/05/30 09:08:32;;;;;;;5.05;4.55;;;;;;;;;;4989207;28;20034;-69
2022/05/30 09:11:00;;;;;;;6.70;5.65;;;;;;;;;;4986705;28;20105;-69
2022/05/30 09:13:31;;;;;;;6.80;4.97;;;;;;;;;;4986183;28;20437;-70
2022/05/30 09:16:06;;;;;;;5.32;4.70;;;;;;;;;;4989090;28;20018;-74
2022/05/30 09:18:52;;;;;;;5.35;4.45;;;;;;;;;;4989668;28;20338;-69
2022/05/30 09:21:18;;;;;;;9.60;4.45;;;;;;;;;;4987024;28;20038;-73
2022/05/30 09:23:44;;;;;;;6.30;4.80;;;;;;;;;;4989260;28;20038;-68
2022/05/30 09:26:16;;;;;;;4.97;4.47;;;;;;;;;;4985622;28;20045;-70
2022/05/30 09:28:42;;;;;;;6.53;5.90;;;;;;;;;;4987800;28;20418;-70
2022/05/30 09:31:17;;;;;;;6.88;4.75;;;;;;;;;;4986076;28;20030;-73
2022/05/30 09:33:47;;;;;;;7.00;5.10;;;;;;;;;;4987782;28;20033;-68
2022/05/30 09:36:12;;;;;;;6.95;4.47;;;;;;;;;;4988365;28;20042;-69
2022/05/30 09:38:41;;;;;;;5.07;4.05;;;;;;;;;;4991030;28;20037;-68
2022/05/30 09:41:11;;;;;;;5.43;4.45;;;;;;;;;;4985809;28;20038;-73
2022/05/30 09:43:48;;;;;;;5.43;4.57;;;;;;;;;;4987310;28;20032;-69
2022/05/30 09:46:20;;;;;;;5.13;4.63;;;;;;;;;;4986833;28;20046;-68
2022/05/30 09:49:03;;;;;;;5.18;4.68;;;;;;;;;;4989421;28;20122;-71
2022/05/30 09:51:41;;;;;;;4.97;4.38;;;;;;;;;;4987899;28;20225;-68
2022/05/30 09:54:08;;;;;;;4.15;3.72;;;;;;;;;;4988252;28;20120;-68
2022/05/30 09:56:37;;;;;;;5.57;4.53;;;;;;;;;;4986421;28;20096;-74
2022/05/30 09:59:05;;;;;;;5.05;4.28;;;;;;;;;;4990259;28;20159;-70
2022/05/30 10:01:32;;;;;;;5.85;5.03;;;;;;;;;;4990315;28;20092;-74
2022/05/30 10:04:18;;;;;;;6.70;4.38;;;;;;;;;;4990949;28;20064;-69
2022/05/30 10:07:00;;;;;;;8.40;3.97;;;;;;;;;;4989619;28;20042;-75
2022/05/30 10:09:26;;;;;;;8.77;5.78;;;;;;;;;;4989100;28;20050;-74
2022/05/30 10:11:55;;;;;;;5.30;4.30;;;;;;;;;;4990048;28;20066;-70
2022/05/30 10:14:20;;;;;;;;;;;;;;;;;;4991197;28;20030;-73
2022/05/30 10:16:45;;;;;;;4.45;3.83;;;;;;;;;;4990514;28;19913;-67
2022/05/30 10:19:20;;;;;;;3.85;3.25;;;;;;;;;;4994026;28;20053;-75
2022/05/30 10:28:14;;;;;;;4.63;3.70;;;;;;;;;;4993773;28;20037;-69
2022/05/30 10:30:20;;;;;;;5.07;3.72;;;;;;;;;;4990362;28;20037;-70
2022/05/30 10:33:18;;;;;;;5.15;3.88;;;;;;;;;;4992190;28;20027;-73
2022/05/30 10:36:03;;;;;;;9.07;4.85;;;;;;;;;;4970072;28;20104;-69
2022/05/30 10:38:28;;;;;;;5.60;3.63;;;;;;;;;;4989887;28;20049;-69
2022/05/30 10:40:53;;;;;;;4.70;4.30;;;;;;;;;;4991728;28;20357;-70
2022/05/30 10:43:23;;;;;;;6.43;4.20;;;;;;;;;;4991832;28;20267;-73
2022/05/30 10:45:58;;;;;;;4.70;3.47;;;;;;;;;;4990430;28;20263;-70
2022/05/30 10:48:26;;;;;;;4.10;3.70;;;;;;;;;;4989875;28;20034;-69
2022/05/30 10:50:59;;;;;;;4.50;3.63;;;;;;;;;;4991136;28;20029;-70
2022/05/30 10:53:31;;;;;;;6.53;3.78;;;;;;;;;;4973925;28;20450;-75
2022/05/30 10:55:58;;;;;;;5.55;3.78;;;;;;;;;;4990235;28;20073;-69
2022/05/30 10:58:30;;;;;;;4.97;3.10;;;;;;;;;;4990140;28;20034;-72
2022/05/30 11:00:58;;;;;;;4.97;3.05;;;;;;;;;;4990323;28;20061;-68
2022/05/30 11:03:30;;;;;;;3.43;2.80;;;;;;;;;;4992923;28;20037;-69
2022/05/30 11:06:16;;;;;;;5.00;3.30;;;;;;;;;;4991066;28;20022;-68
2022/05/30 11:08:45;;;;;;;6.00;3.05;;;;;;;;;;4990222;28;21400;-70
2022/05/30 11:11:19;;;;;;;4.93;3.28;;;;;;;;;;4991912;28;20109;-69
2022/05/30 11:13:50;;;;;;;3.70;3.40;;;;;;;;;;4990838;28;20034;-69
2022/05/30 11:16:39;;;;;;;5.75;3.35;;;;;;;;;;4990402;28;20034;-70
2022/05/30 11:19:27;;;;;;;3.20;2.90;;;;;;;;;;4990861;28;20091;-69
2022/05/30 11:21:56;;;;;;;4.35;3.42;;;;;;;;;;4990686;28;20121;-70
2022/05/30 11:24:21;;;;;;;4.03;3.40;;;;;;;;;;4992944;28;20038;-71
2022/05/30 11:26:52;;;;;;;4.25;3.40;;;;;;;;;;4985719;28;20033;-69
2022/05/30 11:29:30;;;;;;;4.70;3.17;;;;;;;;;;4986792;28;20450;-74
2022/05/30 11:32:00;;;;;;;6.07;3.60;;;;;;;;;;4986642;28;20026;-69
2022/05/30 11:34:28;;;;;;;4.90;3.15;;;;;;;;;;4986680;28;20030;-70
2022/05/30 11:37:03;;;;;;;5.57;3.47;;;;;;;;;;4985351;28;20076;-69
2022/05/30 11:39:37;;;;;;;6.05;2.65;;;;;;;;;;4986296;28;20030;-74
2022/05/30 11:42:05;;;;;;;4.05;2.92;;;;;;;;;;4992994;28;20036;-72
2022/05/30 11:44:37;;;;;;;4.88;2.88;;;;;;;;;;4991931;28;20441;-69
2022/05/30 11:47:15;;;;;;;3.40;2.50;;;;;;;;;;4989874;28;20026;-69
2022/05/30 11:49:44;;;;;;;5.75;3.30;;;;;;;;;;4987344;28;20054;-70
2022/05/30 11:52:16;;;;;;;3.70;2.92;;;;;;;;;;4986696;28;20056;-69
2022/05/30 11:55:03;;;;;;;4.30;3.47;;;;;;;;;;4986733;28;20116;-70
2022/05/30 11:57:32;;;;;;;3.30;2.90;;;;;;;;;;4973982;28;20433;-69
2022/05/30 12:00:04;;;;;;;6.70;2.50;;;;;;;;;;4986457;28;20026;-73
2022/05/30 12:02:42;;;;;;;4.30;3.45;;;;;;;;;;4988390;28;20034;-73
2022/05/30 12:05:19;;;;;;;4.47;3.63;;;;;;;;;;4993506;28;20025;-67
2022/05/30 12:08:03;;;;;;;3.97;3.08;;;;;;;;;;4987578;28;20088;-69
2022/05/30 12:10:47;;;;;;;3.78;2.65;;;;;;;;;;4985794;28;20339;-69
2022/05/30 12:13:15;;;;;;;3.65;3.05;;;;;;;;;;4991975;28;20035;-70
2022/05/30 12:15:47;;;;;;;5.30;2.80;;;;;;;;;;4991212;28;20030;-71
2022/05/30 12:24:19;;;;;;;2.67;2.45;;;;;;;;;;4987858;28;20118;-68
2022/05/30 12:26:53;;;;;;;3.65;2.58;;;;;;;;;;4981002;28;20134;-70
2022/05/30 12:29:47;;;;;;;4.40;2.20;;;;;;;;;;4988405;28;20018;-69
2022/05/30 12:32:21;;;;;;;4.43;2.35;;;;;;;;;;4980932;28;20050;-71
2022/05/30 12:35:11;;;;;;;6.25;2.80;;;;;;;;;;4987862;28;20458;-68
2022/05/30 12:37:45;;;;;;;2.83;2.42;;;;;;;;;;4979311;28;20343;-71
2022/05/30 12:40:22;;;;;;;2.78;2.10;;;;;;;;;;4973569;28;20133;-69
2022/05/30 12:42:56;;;;;;;5.28;2.90;;;;;;;;;;4973194;28;20429;-75
2022/05/30 12:45:34;;;;;;;7.13;2.97;;;;;;;;;;4979043;28;20034;-72
2022/05/30 12:48:01;;;;;;;4.03;2.53;;;;;;;;;;4988764;28;20165;-70
2022/05/30 12:50:29;;;;;;;4.18;2.35;;;;;;;;;;4987909;28;20042;-73
2022/05/30 12:52:56;;;;;;;5.20;2.50;;;;;;;;;;4976919;28;20026;-69
2022/05/30 12:55:35;;;;;;;2.50;2.30;;;;;;;;;;4966594;28;20280;-69
2022/05/30 12:58:00;;;;;;;2.78;2.47;;;;;;;;;;4958860;28;20042;-68
2022/05/30 13:00:38;;;;;;;3.72;2.85;;;;;;;;;;4956502;28;20034;-69
2022/05/30 13:03:10;;;;;;;4.20;2.55;;;;;;;;;;4952190;28;20026;-71
2022/05/30 13:05:38;;;;;;;6.40;2.65;;;;;;;;;;4951156;28;20135;-68
2022/05/30 13:08:23;;;;;;;3.17;2.05;;;;;;;;;;4951825;28;20752;-70
2022/05/30 13:10:50;;;;;;;6.00;2.70;;;;;;;;;;4954218;28;20034;-69
2022/05/30 13:13:19;;;;;;;3.72;2.30;;;;;;;;;;4955024;28;20058;-72
2022/05/30 13:15:53;;;;;;;3.00;2.20;;;;;;;;;;4957892;28;20038;-71
2022/05/30 13:18:20;;;;;;;3.33;2.20;;;;;;;;;;4954161;28;20084;-69
2022/05/30 13:20:50;;;;;;;3.55;2.20;;;;;;;;;;4956061;28;20396;-72
2022/05/30 13:23:25;;;;;;;2.50;1.83;;;;;;;;;;4956369;28;20748;-69
2022/05/30 13:25:51;;;;;;;4.57;3.25;;;;;;;;;;4951790;28;20382;-70
2022/05/30 13:28:22;;;;;;;4.07;2.30;;;;;;;;;;4961312;28;20513;-69
2022/05/30 13:30:49;;;;;;;8.23;2.42;;;;;;;;;;4959448;28;20027;-71
2022/05/30 13:33:40;;;;;;;5.40;2.10;;;;;;;;;;4957948;28;20085;-69
2022/05/30 13:36:13;;;;;;;3.97;2.22;;;;;;;;;;4968954;28;20528;-71
2022/05/30 13:38:41;;;;;;;4.35;2.10;;;;;;;;;;4953924;28;20117;-70
2022/05/30 13:41:25;;;;;;;2.35;2.15;;;;;;;;;;4958196;28;20034;-69
2022/05/30 13:43:51;;;;;;;2.50;1.75;;;;;;;;;;4968816;28;21265;-69
2022/05/30 13:46:24;;;;;;;4.18;2.03;;;;;;;;;;4955060;28;20049;-71
2022/05/30 13:48:49;;;;;;;4.55;2.10;;;;;;;;;;4970817;28;20023;-72
2022/05/30 13:51:16;;;;;;;7.97;2.58;;;;;;;;;;4967812;28;20032;-71
2022/05/30 13:53:46;;;;;;;5.85;1.92;;;;;;;;;;4961570;28;20026;-70
2022/05/30 13:56:12;;;;;;;2.33;1.88;;;;;;;;;;4983683;28;20066;-71
2022/05/30 13:58:43;;;;;;;3.63;1.88;;;;;;;;;;4986921;28;20438;-71
2022/05/30 14:01:14;;;;;;;3.40;1.98;;;;;;;;;;4977185;28;20034;-71
2022/05/30 14:03:46;;;;;;;3.25;1.95;;;;;;;;;;4978395;28;20041;-72
2022/05/30 14:06:18;;;;;;;3.80;1.70;;;;;;;;;;4978125;28;20033;-69
2022/05/30 14:08:44;;;;;;;2.95;1.90;;;;;;;;;;4980583;28;20474;-71
2022/05/30 14:11:10;;;;;;;3.20;2.25;;;;;;;;;;4983350;28;20044;-69
2022/05/30 14:13:44;;;;;;;2.53;2.25;;;;;;;;;;4971959;28;20028;-69
2022/05/30 14:16:29;;;;;;;6.20;3.45;;;;;;;;;;4982864;28;20035;-72
2022/05/30 14:18:57;;;;;;;3.30;2.40;;;;;;;;;;4987696;28;20030;-72
2022/05/30 14:21:24;;;;;;;4.15;2.00;;;;;;;;;;4987848;28;20053;-71
2022/05/30 14:23:52;;;;;;;4.30;2.80;;;;;;;;;;4987005;28;20025;-70
2022/05/30 14:26:22;;;;;;;2.88;2.47;;;;;;;;;;4973111;28;20073;-71
2022/05/30 14:28:53;;;;;;;2.33;2.00;;;;;;;;;;4975529;28;20027;-68
2022/05/30 14:31:19;;;;;;;4.13;2.17;;;;;;;;;;4974713;28;20081;-71
2022/05/30 14:34:14;;;;;;;5.55;1.92;;;;;;;;;;4975047;28;20042;-67
2022/05/30 14:36:42;;;;;;;3.45;2.05;;;;;;;;;;4965975;28;20038;-69
2022/05/30 14:39:13;;;;;;;5.93;2.45;;;;;;;;;;4975647;28;20053;-68
2022/05/30 14:41:39;;;;;;;2.17;1.80;;;;;;;;;;4976757;28;20034;-67
2022/05/30 14:44:04;;;;;;;3.55;2.20;;;;;;;;;;4973016;28;20117;-72
2022/05/30 14:46:39;;;;;;;5.68;2.45;;;;;;;;;;4982318;28;20034;-69
2022/05/30 14:49:15;;;;;;;4.18;2.00;;;;;;;;;;4987626;28;20022;-70
2022/05/30 14:51:49;;;;;;;6.15;1.80;;;;;;;;;;4986151;28;20342;-69
2022/05/30 14:54:15;;;;;;;2.38;1.70;;;;;;;;;;4973498;28;20750;-69
2022/05/30 14:56:42;;;;;;;2.95;2.13;;;;;;;;;;4976325;28;20054;-68
2022/05/30 14:59:08;;;;;;;3.25;1.88;;;;;;;;;;4990818;28;20037;-69
2022/05/30 15:01:34;;;;;;;2.65;2.00;;;;;;;;;;4983191;28;20448;-71
2022/05/30 15:04:08;;;;;;;4.97;1.95;;;;;;;;;;4979389;28;20034;-70
2022/05/30 15:06:37;;;;;;;2.38;1.70;;;;;;;;;;4989903;28;20158;-69
2022/05/30 15:09:04;;;;;;;3.20;1.98;;;;;;;;;;4991419;28;20027;-68
2022/05/30 15:11:29;;;;;;;3.67;1.88;;;;;;;;;;4993049;28;20453;-68
2022/05/30 15:13:55;;;;;;;3.17;2.42;;;;;;;;;;4985787;28;20104;-69
2022/05/30 15:16:21;;;;;;;4.70;1.90;;;;;;;;;;4978197;28;20022;-69
2022/05/30 15:18:47;;;;;;;2.40;1.70;;;;;;;;;;4981614;28;20680;-69